sensor_id;sensor_type;location;lat;lon;timestamp;P1;durP1;ratioP1;P2;durP2;ratioP2
2940;SDS011;1480;51.456;6.670;2022-10-16T00:01:36;5.83;;;3.27;;
2940;SDS011;1480;51.456;6.670;2022-10-16T00:04:08;10.00;;;3.20;;
2940;SDS011;1480;51.456;6.670;2022-10-16T00:06:36;5.30;;;3.43;;
2940;SDS011;1480;51.456;6.670;2022-10-16T00:09:03;6.80;;;2.87;;
2940;SDS011;1480;51.456;6.670;2022-10-16T00:11:31;8.00;;;3.47;;
2940;SDS011;1480;51.456;6.670;2022-10-16T00:14:03;4.87;;;3.20;;
2940;SDS011;1480;51.456;6.670;2022-10-16T00:16:32;4.27;;;3.60;;
2940;SDS011;1480;51.456;6.670;2022-10-16T00:18:59;5.13;;;3.50;;
2940;SDS011;1480;51.456;6.670;2022-10-16T00:21:28;4.77;;;3.57;;
2940;SDS011;1480;51.456;6.670;2022-10-16T00:23:57;9.53;;;3.87;;
2940;SDS011;1480;51.456;6.670;2022-10-16T00:26:26;9.60;;;4.33;;
2940;SDS011;1480;51.456;6.670;2022-10-16T00:28:55;9.07;;;4.33;;
2940;SDS011;1480;51.456;6.670;2022-10-16T00:31:22;5.10;;;3.23;;
2940;SDS011;1480;51.456;6.670;2022-10-16T00:33:50;7.83;;;4.13;;
2940;SDS011;1480;51.456;6.670;2022-10-16T00:36:18;9.10;;;4.07;;
2940;SDS011;1480;51.456;6.670;2022-10-16T00:38:49;5.40;;;4.00;;
2940;SDS011;1480;51.456;6.670;2022-10-16T00:41:18;6.30;;;4.17;;
2940;SDS011;1480;51.456;6.670;2022-10-16T00:43:47;6.90;;;3.87;;
2940;SDS011;1480;51.456;6.670;2022-10-16T00:46:16;4.20;;;2.90;;
2940;SDS011;1480;51.456;6.670;2022-10-16T00:48:46;5.87;;;3.77;;
2940;SDS011;1480;51.456;6.670;2022-10-16T00:51:18;6.03;;;3.50;;
2940;SDS011;1480;51.456;6.670;2022-10-16T00:53:49;7.97;;;3.00;;
2940;SDS011;1480;51.456;6.670;2022-10-16T00:56:16;8.90;;;4.33;;
2940;SDS011;1480;51.456;6.670;2022-10-16T00:58:44;5.70;;;3.20;;
2940;SDS011;1480;51.456;6.670;2022-10-16T01:01:11;7.37;;;3.37;;
2940;SDS011;1480;51.456;6.670;2022-10-16T01:03:38;5.63;;;3.53;;
2940;SDS011;1480;51.456;6.670;2022-10-16T01:06:11;8.43;;;3.70;;
2940;SDS011;1480;51.456;6.670;2022-10-16T01:08:54;4.33;;;3.30;;
2940;SDS011;1480;51.456;6.670;2022-10-16T01:11:37;5.83;;;3.63;;
2940;SDS011;1480;51.456;6.670;2022-10-16T01:14:11;4.90;;;3.50;;
2940;SDS011;1480;51.456;6.670;2022-10-16T01:16:48;4.60;;;3.27;;
2940;SDS011;1480;51.456;6.670;2022-10-16T01:19:20;3.93;;;3.20;;
2940;SDS011;1480;51.456;6.670;2022-10-16T01:21:57;5.07;;;3.70;;
2940;SDS011;1480;51.456;6.670;2022-10-16T01:24:31;4.43;;;2.93;;
2940;SDS011;1480;51.456;6.670;2022-10-16T01:27:07;3.80;;;2.90;;
2940;SDS011;1480;51.456;6.670;2022-10-16T01:29:37;4.67;;;3.27;;
2940;SDS011;1480;51.456;6.670;2022-10-16T01:32:11;3.77;;;3.37;;
2940;SDS011;1480;51.456;6.670;2022-10-16T01:34:45;8.83;;;3.50;;
2940;SDS011;1480;51.456;6.670;2022-10-16T01:37:16;6.13;;;3.10;;
2940;SDS011;1480;51.456;6.670;2022-10-16T01:39:51;8.03;;;3.50;;
2940;SDS011;1480;51.456;6.670;2022-10-16T01:42:24;11.50;;;3.60;;
2940;SDS011;1480;51.456;6.670;2022-10-16T01:44:56;4.50;;;3.10;;
2940;SDS011;1480;51.456;6.670;2022-10-16T01:47:25;4.83;;;2.90;;
2940;SDS011;1480;51.456;6.670;2022-10-16T01:49:53;5.13;;;3.30;;
2940;SDS011;1480;51.456;6.670;2022-10-16T01:52:23;7.10;;;2.93;;
2940;SDS011;1480;51.456;6.670;2022-10-16T01:54:53;5.73;;;2.30;;
2940;SDS011;1480;51.456;6.670;2022-10-16T01:57:24;6.43;;;2.80;;
2940;SDS011;1480;51.456;6.670;2022-10-16T01:59:53;7.83;;;3.37;;
2940;SDS011;1480;51.456;6.670;2022-10-16T02:02:24;7.93;;;2.70;;
2940;SDS011;1480;51.456;6.670;2022-10-16T02:04:56;3.50;;;2.30;;
2940;SDS011;1480;51.456;6.670;2022-10-16T02:07:25;3.40;;;2.33;;
2940;SDS011;1480;51.456;6.670;2022-10-16T02:09:55;7.80;;;2.33;;
2940;SDS011;1480;51.456;6.670;2022-10-16T02:12:23;10.03;;;2.80;;
2940;SDS011;1480;51.456;6.670;2022-10-16T02:14:54;8.20;;;3.20;;
2940;SDS011;1480;51.456;6.670;2022-10-16T02:17:22;6.53;;;3.13;;
2940;SDS011;1480;51.456;6.670;2022-10-16T02:19:51;5.90;;;2.90;;
2940;SDS011;1480;51.456;6.670;2022-10-16T02:22:21;9.30;;;3.20;;
2940;SDS011;1480;51.456;6.670;2022-10-16T02:24:54;4.77;;;2.93;;
2940;SDS011;1480;51.456;6.670;2022-10-16T02:27:27;9.37;;;2.90;;
2940;SDS011;1480;51.456;6.670;2022-10-16T02:30:02;9.73;;;3.20;;
2940;SDS011;1480;51.456;6.670;2022-10-16T02:32:34;3.93;;;2.50;;
2940;SDS011;1480;51.456;6.670;2022-10-16T02:35:07;3.57;;;2.10;;
2940;SDS011;1480;51.456;6.670;2022-10-16T02:37:35;3.60;;;2.40;;
2940;SDS011;1480;51.456;6.670;2022-10-16T02:40:03;5.20;;;2.60;;
2940;SDS011;1480;51.456;6.670;2022-10-16T02:42:34;2.70;;;2.20;;
2940;SDS011;1480;51.456;6.670;2022-10-16T02:45:02;7.23;;;2.60;;
2940;SDS011;1480;51.456;6.670;2022-10-16T02:47:33;3.73;;;2.50;;
2940;SDS011;1480;51.456;6.670;2022-10-16T02:50:00;4.43;;;2.70;;
2940;SDS011;1480;51.456;6.670;2022-10-16T02:52:27;4.63;;;2.27;;
2940;SDS011;1480;51.456;6.670;2022-10-16T02:54:54;3.80;;;1.90;;
2940;SDS011;1480;51.456;6.670;2022-10-16T02:57:22;8.23;;;2.40;;
2940;SDS011;1480;51.456;6.670;2022-10-16T02:59:50;3.30;;;2.20;;
2940;SDS011;1480;51.456;6.670;2022-10-16T03:02:18;6.50;;;1.90;;
2940;SDS011;1480;51.456;6.670;2022-10-16T03:04:45;2.87;;;1.90;;
2940;SDS011;1480;51.456;6.670;2022-10-16T03:07:12;2.70;;;1.47;;
2940;SDS011;1480;51.456;6.670;2022-10-16T03:09:38;2.80;;;1.40;;
2940;SDS011;1480;51.456;6.670;2022-10-16T03:12:05;5.30;;;1.47;;
2940;SDS011;1480;51.456;6.670;2022-10-16T03:14:34;2.20;;;1.40;;
2940;SDS011;1480;51.456;6.670;2022-10-16T03:17:06;4.93;;;2.27;;
2940;SDS011;1480;51.456;6.670;2022-10-16T03:19:33;2.30;;;1.40;;
2940;SDS011;1480;51.456;6.670;2022-10-16T03:22:00;2.43;;;1.63;;
2940;SDS011;1480;51.456;6.670;2022-10-16T03:24:28;4.70;;;1.60;;
2940;SDS011;1480;51.456;6.670;2022-10-16T03:26:55;2.90;;;1.30;;
2940;SDS011;1480;51.456;6.670;2022-10-16T03:29:22;3.07;;;1.40;;
2940;SDS011;1480;51.456;6.670;2022-10-16T03:31:50;3.10;;;1.80;;
2940;SDS011;1480;51.456;6.670;2022-10-16T03:34:19;1.87;;;1.40;;
2940;SDS011;1480;51.456;6.670;2022-10-16T03:36:46;2.47;;;1.50;;
2940;SDS011;1480;51.456;6.670;2022-10-16T03:39:12;2.60;;;1.60;;
2940;SDS011;1480;51.456;6.670;2022-10-16T03:41:39;3.50;;;1.20;;
2940;SDS011;1480;51.456;6.670;2022-10-16T03:44:07;2.30;;;1.10;;
2940;SDS011;1480;51.456;6.670;2022-10-16T03:46:34;3.83;;;1.17;;
2940;SDS011;1480;51.456;6.670;2022-10-16T03:49:01;3.27;;;1.60;;
2940;SDS011;1480;51.456;6.670;2022-10-16T03:51:29;3.63;;;1.27;;
2940;SDS011;1480;51.456;6.670;2022-10-16T03:53:56;2.50;;;1.37;;
2940;SDS011;1480;51.456;6.670;2022-10-16T03:56:23;4.83;;;1.23;;
2940;SDS011;1480;51.456;6.670;2022-10-16T03:58:50;1.97;;;1.10;;
2940;SDS011;1480;51.456;6.670;2022-10-16T04:01:17;2.87;;;1.57;;
2940;SDS011;1480;51.456;6.670;2022-10-16T04:03:44;6.03;;;1.67;;
2940;SDS011;1480;51.456;6.670;2022-10-16T04:06:11;2.17;;;1.40;;
2940;SDS011;1480;51.456;6.670;2022-10-16T04:08:41;5.90;;;1.63;;
2940;SDS011;1480;51.456;6.670;2022-10-16T04:11:08;4.67;;;1.43;;
2940;SDS011;1480;51.456;6.670;2022-10-16T04:13:35;2.20;;;1.30;;
2940;SDS011;1480;51.456;6.670;2022-10-16T04:16:03;2.80;;;1.30;;
2940;SDS011;1480;51.456;6.670;2022-10-16T04:18:30;3.13;;;1.20;;
2940;SDS011;1480;51.456;6.670;2022-10-16T04:21:01;6.03;;;1.20;;
2940;SDS011;1480;51.456;6.670;2022-10-16T04:23:29;1.97;;;1.30;;
2940;SDS011;1480;51.456;6.670;2022-10-16T04:25:57;1.70;;;1.23;;
2940;SDS011;1480;51.456;6.670;2022-10-16T04:28:24;5.20;;;1.60;;
2940;SDS011;1480;51.456;6.670;2022-10-16T04:30:51;2.43;;;1.40;;
2940;SDS011;1480;51.456;6.670;2022-10-16T04:33:18;5.63;;;1.30;;
2940;SDS011;1480;51.456;6.670;2022-10-16T04:35:45;11.23;;;2.17;;
2940;SDS011;1480;51.456;6.670;2022-10-16T04:38:13;1.93;;;1.40;;
2940;SDS011;1480;51.456;6.670;2022-10-16T04:40:41;3.10;;;1.50;;
2940;SDS011;1480;51.456;6.670;2022-10-16T04:43:10;1.97;;;1.20;;
2940;SDS011;1480;51.456;6.670;2022-10-16T04:45:36;2.53;;;1.40;;
2940;SDS011;1480;51.456;6.670;2022-10-16T04:48:03;3.47;;;1.30;;
2940;SDS011;1480;51.456;6.670;2022-10-16T04:50:31;4.40;;;1.33;;
2940;SDS011;1480;51.456;6.670;2022-10-16T04:53:04;4.47;;;1.30;;
2940;SDS011;1480;51.456;6.670;2022-10-16T04:55:31;3.00;;;1.50;;
2940;SDS011;1480;51.456;6.670;2022-10-16T04:57:58;2.30;;;1.27;;
2940;SDS011;1480;51.456;6.670;2022-10-16T05:00:26;5.13;;;1.30;;
2940;SDS011;1480;51.456;6.670;2022-10-16T05:02:53;2.10;;;1.50;;
2940;SDS011;1480;51.456;6.670;2022-10-16T05:05:20;2.33;;;1.30;;
2940;SDS011;1480;51.456;6.670;2022-10-16T05:07:48;2.67;;;1.40;;
2940;SDS011;1480;51.456;6.670;2022-10-16T05:10:15;3.03;;;1.80;;
2940;SDS011;1480;51.456;6.670;2022-10-16T05:12:42;1.87;;;1.13;;
2940;SDS011;1480;51.456;6.670;2022-10-16T05:15:09;2.77;;;1.20;;
2940;SDS011;1480;51.456;6.670;2022-10-16T05:17:38;2.10;;;1.40;;
2940;SDS011;1480;51.456;6.670;2022-10-16T05:20:05;3.13;;;1.40;;
2940;SDS011;1480;51.456;6.670;2022-10-16T05:22:33;2.17;;;1.40;;
2940;SDS011;1480;51.456;6.670;2022-10-16T05:25:00;4.27;;;1.30;;
2940;SDS011;1480;51.456;6.670;2022-10-16T05:27:27;2.27;;;1.63;;
2940;SDS011;1480;51.456;6.670;2022-10-16T05:29:54;2.23;;;1.67;;
2940;SDS011;1480;51.456;6.670;2022-10-16T05:32:21;3.67;;;1.70;;
2940;SDS011;1480;51.456;6.670;2022-10-16T05:34:50;6.00;;;1.37;;
2940;SDS011;1480;51.456;6.670;2022-10-16T05:37:17;1.93;;;1.40;;
2940;SDS011;1480;51.456;6.670;2022-10-16T05:39:44;2.43;;;1.50;;
2940;SDS011;1480;51.456;6.670;2022-10-16T05:42:11;2.50;;;1.53;;
2940;SDS011;1480;51.456;6.670;2022-10-16T05:44:38;5.77;;;1.60;;
2940;SDS011;1480;51.456;6.670;2022-10-16T05:47:04;2.63;;;1.47;;
2940;SDS011;1480;51.456;6.670;2022-10-16T05:49:31;7.87;;;1.30;;
2940;SDS011;1480;51.456;6.670;2022-10-16T05:52:00;6.40;;;1.77;;
2940;SDS011;1480;51.456;6.670;2022-10-16T05:54:27;4.43;;;1.87;;
2940;SDS011;1480;51.456;6.670;2022-10-16T05:56:54;4.53;;;1.93;;
2940;SDS011;1480;51.456;6.670;2022-10-16T05:59:21;5.73;;;1.60;;
2940;SDS011;1480;51.456;6.670;2022-10-16T06:01:48;2.03;;;1.33;;
2940;SDS011;1480;51.456;6.670;2022-10-16T06:04:14;2.10;;;1.63;;
2940;SDS011;1480;51.456;6.670;2022-10-16T06:06:42;4.80;;;1.50;;
2940;SDS011;1480;51.456;6.670;2022-10-16T06:09:10;3.00;;;1.50;;
2940;SDS011;1480;51.456;6.670;2022-10-16T06:11:37;7.20;;;1.80;;
2940;SDS011;1480;51.456;6.670;2022-10-16T06:14:04;2.90;;;1.73;;
2940;SDS011;1480;51.456;6.670;2022-10-16T06:16:33;6.40;;;2.43;;
2940;SDS011;1480;51.456;6.670;2022-10-16T06:19:01;8.20;;;1.80;;
2940;SDS011;1480;51.456;6.670;2022-10-16T06:21:31;3.40;;;2.10;;
2940;SDS011;1480;51.456;6.670;2022-10-16T06:23:58;7.70;;;2.07;;
2940;SDS011;1480;51.456;6.670;2022-10-16T06:26:27;3.23;;;1.60;;
2940;SDS011;1480;51.456;6.670;2022-10-16T06:28:55;3.70;;;2.73;;
2940;SDS011;1480;51.456;6.670;2022-10-16T06:31:24;7.80;;;1.90;;
2940;SDS011;1480;51.456;6.670;2022-10-16T06:33:54;9.30;;;1.93;;
2940;SDS011;1480;51.456;6.670;2022-10-16T06:36:21;2.23;;;1.90;;
2940;SDS011;1480;51.456;6.670;2022-10-16T06:38:49;6.67;;;2.10;;
2940;SDS011;1480;51.456;6.670;2022-10-16T06:41:16;5.33;;;2.10;;
2940;SDS011;1480;51.456;6.670;2022-10-16T06:43:45;7.70;;;2.00;;
2940;SDS011;1480;51.456;6.670;2022-10-16T06:46:13;5.17;;;2.33;;
2940;SDS011;1480;51.456;6.670;2022-10-16T06:48:42;4.07;;;2.00;;
2940;SDS011;1480;51.456;6.670;2022-10-16T06:51:09;5.57;;;1.80;;
2940;SDS011;1480;51.456;6.670;2022-10-16T06:53:37;4.20;;;2.20;;
2940;SDS011;1480;51.456;6.670;2022-10-16T06:56:06;4.47;;;2.03;;
2940;SDS011;1480;51.456;6.670;2022-10-16T06:58:34;5.80;;;2.23;;
2940;SDS011;1480;51.456;6.670;2022-10-16T07:01:02;2.60;;;1.87;;
2940;SDS011;1480;51.456;6.670;2022-10-16T07:03:29;6.23;;;2.40;;
2940;SDS011;1480;51.456;6.670;2022-10-16T07:05:57;4.43;;;2.30;;
2940;SDS011;1480;51.456;6.670;2022-10-16T07:08:27;2.90;;;2.37;;
2940;SDS011;1480;51.456;6.670;2022-10-16T07:10:57;4.17;;;2.40;;
2940;SDS011;1480;51.456;6.670;2022-10-16T07:13:25;4.70;;;2.30;;
2940;SDS011;1480;51.456;6.670;2022-10-16T07:15:52;3.90;;;2.57;;
2940;SDS011;1480;51.456;6.670;2022-10-16T07:18:21;5.70;;;2.37;;
2940;SDS011;1480;51.456;6.670;2022-10-16T07:20:51;2.80;;;2.30;;
2940;SDS011;1480;51.456;6.670;2022-10-16T07:23:18;9.03;;;2.57;;
2940;SDS011;1480;51.456;6.670;2022-10-16T07:25:45;9.17;;;2.60;;
2940;SDS011;1480;51.456;6.670;2022-10-16T07:28:19;3.87;;;2.77;;
2940;SDS011;1480;51.456;6.670;2022-10-16T07:30:46;5.00;;;3.10;;
2940;SDS011;1480;51.456;6.670;2022-10-16T07:33:13;4.87;;;2.43;;
2940;SDS011;1480;51.456;6.670;2022-10-16T07:35:48;2.90;;;2.40;;
2940;SDS011;1480;51.456;6.670;2022-10-16T07:38:15;2.83;;;2.47;;
2940;SDS011;1480;51.456;6.670;2022-10-16T07:40:42;7.27;;;2.20;;
2940;SDS011;1480;51.456;6.670;2022-10-16T07:43:09;4.93;;;2.10;;
2940;SDS011;1480;51.456;6.670;2022-10-16T07:45:40;6.13;;;2.37;;
2940;SDS011;1480;51.456;6.670;2022-10-16T07:48:12;2.90;;;2.07;;
2940;SDS011;1480;51.456;6.670;2022-10-16T07:50:39;3.33;;;2.57;;
2940;SDS011;1480;51.456;6.670;2022-10-16T07:53:08;2.67;;;2.03;;
2940;SDS011;1480;51.456;6.670;2022-10-16T07:55:39;4.40;;;2.60;;
2940;SDS011;1480;51.456;6.670;2022-10-16T07:58:06;3.27;;;2.37;;
2940;SDS011;1480;51.456;6.670;2022-10-16T08:00:33;5.70;;;2.43;;
2940;SDS011;1480;51.456;6.670;2022-10-16T08:03:02;3.63;;;1.90;;
2940;SDS011;1480;51.456;6.670;2022-10-16T08:05:35;2.13;;;1.60;;
2940;SDS011;1480;51.456;6.670;2022-10-16T08:08:02;3.57;;;2.20;;
2940;SDS011;1480;51.456;6.670;2022-10-16T08:10:31;3.30;;;2.10;;
2940;SDS011;1480;51.456;6.670;2022-10-16T08:12:58;4.77;;;2.23;;
2940;SDS011;1480;51.456;6.670;2022-10-16T08:15:25;11.23;;;2.60;;
2940;SDS011;1480;51.456;6.670;2022-10-16T08:17:56;2.83;;;2.13;;
2940;SDS011;1480;51.456;6.670;2022-10-16T08:20:24;2.73;;;1.70;;
2940;SDS011;1480;51.456;6.670;2022-10-16T08:22:51;4.57;;;1.50;;
2940;SDS011;1480;51.456;6.670;2022-10-16T08:25:23;3.70;;;2.07;;
2940;SDS011;1480;51.456;6.670;2022-10-16T08:28:02;5.00;;;1.63;;
2940;SDS011;1480;51.456;6.670;2022-10-16T08:30:31;2.90;;;1.63;;
2940;SDS011;1480;51.456;6.670;2022-10-16T08:32:58;6.90;;;2.67;;
2940;SDS011;1480;51.456;6.670;2022-10-16T08:35:26;4.40;;;1.90;;
2940;SDS011;1480;51.456;6.670;2022-10-16T08:37:56;2.90;;;1.80;;
2940;SDS011;1480;51.456;6.670;2022-10-16T08:40:24;5.57;;;1.77;;
2940;SDS011;1480;51.456;6.670;2022-10-16T08:42:56;2.03;;;1.53;;
2940;SDS011;1480;51.456;6.670;2022-10-16T08:45:55;2.10;;;1.30;;
2940;SDS011;1480;51.456;6.670;2022-10-16T08:48:42;7.00;;;1.90;;
2940;SDS011;1480;51.456;6.670;2022-10-16T08:51:14;3.50;;;1.63;;
2940;SDS011;1480;51.456;6.670;2022-10-16T08:53:48;2.40;;;1.53;;
2940;SDS011;1480;51.456;6.670;2022-10-16T08:56:19;2.83;;;1.53;;
2940;SDS011;1480;51.456;6.670;2022-10-16T08:58:57;3.30;;;1.67;;
2940;SDS011;1480;51.456;6.670;2022-10-16T09:01:41;2.73;;;1.50;;
2940;SDS011;1480;51.456;6.670;2022-10-16T09:04:43;3.60;;;1.53;;
2940;SDS011;1480;51.456;6.670;2022-10-16T09:07:21;12.30;;;1.60;;
2940;SDS011;1480;51.456;6.670;2022-10-16T09:10:00;4.60;;;1.50;;
2940;SDS011;1480;51.456;6.670;2022-10-16T09:12:36;6.20;;;1.40;;
2940;SDS011;1480;51.456;6.670;2022-10-16T09:15:14;2.60;;;1.60;;
2940;SDS011;1480;51.456;6.670;2022-10-16T09:17:54;3.90;;;1.40;;
2940;SDS011;1480;51.456;6.670;2022-10-16T09:20:30;3.93;;;1.60;;
2940;SDS011;1480;51.456;6.670;2022-10-16T09:23:08;6.87;;;1.63;;
2940;SDS011;1480;51.456;6.670;2022-10-16T09:25:41;2.60;;;1.37;;
2940;SDS011;1480;51.456;6.670;2022-10-16T09:28:10;3.47;;;1.57;;
2940;SDS011;1480;51.456;6.670;2022-10-16T09:30:40;2.60;;;1.20;;
2940;SDS011;1480;51.456;6.670;2022-10-16T09:33:10;3.47;;;1.77;;
2940;SDS011;1480;51.456;6.670;2022-10-16T09:35:42;2.93;;;1.40;;
2940;SDS011;1480;51.456;6.670;2022-10-16T09:38:21;2.33;;;1.40;;
2940;SDS011;1480;51.456;6.670;2022-10-16T09:40:53;4.07;;;1.70;;
2940;SDS011;1480;51.456;6.670;2022-10-16T09:43:24;3.37;;;1.27;;
2940;SDS011;1480;51.456;6.670;2022-10-16T09:45:57;2.83;;;1.67;;
2940;SDS011;1480;51.456;6.670;2022-10-16T09:48:33;3.20;;;1.20;;
2940;SDS011;1480;51.456;6.670;2022-10-16T09:51:05;4.80;;;1.23;;
2940;SDS011;1480;51.456;6.670;2022-10-16T09:53:43;2.77;;;1.53;;
2940;SDS011;1480;51.456;6.670;2022-10-16T09:56:20;4.90;;;1.20;;
2940;SDS011;1480;51.456;6.670;2022-10-16T09:58:49;4.37;;;1.40;;
2940;SDS011;1480;51.456;6.670;2022-10-16T10:01:35;6.37;;;1.43;;
2940;SDS011;1480;51.456;6.670;2022-10-16T10:04:18;4.70;;;1.43;;
2940;SDS011;1480;51.456;6.670;2022-10-16T10:06:51;4.37;;;1.30;;
2940;SDS011;1480;51.456;6.670;2022-10-16T10:09:22;3.03;;;1.20;;
2940;SDS011;1480;51.456;6.670;2022-10-16T10:11:51;3.73;;;1.00;;
2940;SDS011;1480;51.456;6.670;2022-10-16T10:14:21;2.90;;;1.73;;
2940;SDS011;1480;51.456;6.670;2022-10-16T10:16:50;7.13;;;1.10;;
2940;SDS011;1480;51.456;6.670;2022-10-16T10:19:23;5.70;;;1.20;;
2940;SDS011;1480;51.456;6.670;2022-10-16T10:21:50;6.00;;;1.83;;
2940;SDS011;1480;51.456;6.670;2022-10-16T10:24:18;2.63;;;1.27;;
2940;SDS011;1480;51.456;6.670;2022-10-16T10:26:48;2.80;;;1.10;;
2940;SDS011;1480;51.456;6.670;2022-10-16T10:29:25;8.40;;;2.20;;
2940;SDS011;1480;51.456;6.670;2022-10-16T10:32:06;5.07;;;1.03;;
2940;SDS011;1480;51.456;6.670;2022-10-16T10:34:53;3.83;;;1.30;;
2940;SDS011;1480;51.456;6.670;2022-10-16T10:37:37;3.03;;;1.13;;
2940;SDS011;1480;51.456;6.670;2022-10-16T10:40:23;3.67;;;1.13;;
2940;SDS011;1480;51.456;6.670;2022-10-16T10:43:00;4.27;;;1.10;;
2940;SDS011;1480;51.456;6.670;2022-10-16T10:45:43;5.50;;;1.40;;
2940;SDS011;1480;51.456;6.670;2022-10-16T10:48:43;2.17;;;1.30;;
2940;SDS011;1480;51.456;6.670;2022-10-16T10:51:27;3.03;;;1.30;;
2940;SDS011;1480;51.456;6.670;2022-10-16T10:54:04;4.47;;;1.13;;
2940;SDS011;1480;51.456;6.670;2022-10-16T10:56:42;4.10;;;0.93;;
2940;SDS011;1480;51.456;6.670;2022-10-16T10:59:18;5.20;;;1.30;;
2940;SDS011;1480;51.456;6.670;2022-10-16T11:02:02;1.70;;;0.90;;
2940;SDS011;1480;51.456;6.670;2022-10-16T11:07:52;3.77;;;1.30;;
2940;SDS011;1480;51.456;6.670;2022-10-16T11:10:25;5.17;;;0.97;;
2940;SDS011;1480;51.456;6.670;2022-10-16T11:12:57;5.17;;;0.90;;
2940;SDS011;1480;51.456;6.670;2022-10-16T11:15:31;3.00;;;1.10;;
2940;SDS011;1480;51.456;6.670;2022-10-16T11:18:03;3.00;;;1.10;;
2940;SDS011;1480;51.456;6.670;2022-10-16T11:20:34;3.90;;;1.20;;
2940;SDS011;1480;51.456;6.670;2022-10-16T11:23:08;2.53;;;0.80;;
2940;SDS011;1480;51.456;6.670;2022-10-16T11:25:40;2.83;;;1.10;;
2940;SDS011;1480;51.456;6.670;2022-10-16T11:28:11;4.83;;;1.00;;
2940;SDS011;1480;51.456;6.670;2022-10-16T11:30:41;3.00;;;1.27;;
2940;SDS011;1480;51.456;6.670;2022-10-16T11:33:19;3.20;;;1.10;;
2940;SDS011;1480;51.456;6.670;2022-10-16T11:35:53;3.47;;;1.10;;
2940;SDS011;1480;51.456;6.670;2022-10-16T11:38:28;3.60;;;1.00;;
2940;SDS011;1480;51.456;6.670;2022-10-16T11:41:00;5.77;;;1.30;;
2940;SDS011;1480;51.456;6.670;2022-10-16T11:43:32;5.30;;;1.67;;
2940;SDS011;1480;51.456;6.670;2022-10-16T11:46:04;2.37;;;1.00;;
2940;SDS011;1480;51.456;6.670;2022-10-16T11:48:39;4.40;;;1.27;;
2940;SDS011;1480;51.456;6.670;2022-10-16T11:51:14;2.43;;;0.90;;
2940;SDS011;1480;51.456;6.670;2022-10-16T11:53:49;3.43;;;1.07;;
2940;SDS011;1480;51.456;6.670;2022-10-16T11:56:21;4.40;;;1.00;;
2940;SDS011;1480;51.456;6.670;2022-10-16T11:58:51;2.70;;;1.30;;
2940;SDS011;1480;51.456;6.670;2022-10-16T12:01:24;4.13;;;1.10;;
2940;SDS011;1480;51.456;6.670;2022-10-16T12:04:03;3.80;;;1.20;;
2940;SDS011;1480;51.456;6.670;2022-10-16T12:06:41;2.40;;;1.20;;
2940;SDS011;1480;51.456;6.670;2022-10-16T12:09:14;4.03;;;1.53;;
2940;SDS011;1480;51.456;6.670;2022-10-16T12:11:46;5.60;;;1.50;;
2940;SDS011;1480;51.456;6.670;2022-10-16T12:17:03;3.43;;;1.43;;
2940;SDS011;1480;51.456;6.670;2022-10-16T12:19:56;9.63;;;1.80;;
2940;SDS011;1480;51.456;6.670;2022-10-16T12:22:24;5.10;;;1.57;;
2940;SDS011;1480;51.456;6.670;2022-10-16T12:24:57;2.50;;;1.10;;
2940;SDS011;1480;51.456;6.670;2022-10-16T12:27:28;3.47;;;1.00;;
2940;SDS011;1480;51.456;6.670;2022-10-16T12:29:57;4.20;;;1.10;;
2940;SDS011;1480;51.456;6.670;2022-10-16T12:32:32;3.13;;;1.00;;
2940;SDS011;1480;51.456;6.670;2022-10-16T12:35:01;4.43;;;1.30;;
2940;SDS011;1480;51.456;6.670;2022-10-16T12:37:31;2.33;;;1.10;;
2940;SDS011;1480;51.456;6.670;2022-10-16T12:40:10;4.33;;;1.40;;
2940;SDS011;1480;51.456;6.670;2022-10-16T12:42:39;3.73;;;1.20;;
2940;SDS011;1480;51.456;6.670;2022-10-16T12:47:54;3.50;;;1.10;;
2940;SDS011;1480;51.456;6.670;2022-10-16T12:50:26;3.23;;;1.23;;
2940;SDS011;1480;51.456;6.670;2022-10-16T12:52:58;4.37;;;1.33;;
2940;SDS011;1480;51.456;6.670;2022-10-16T12:55:32;6.03;;;1.27;;
2940;SDS011;1480;51.456;6.670;2022-10-16T12:58:11;4.43;;;1.20;;
2940;SDS011;1480;51.456;6.670;2022-10-16T13:00:48;4.73;;;1.30;;
2940;SDS011;1480;51.456;6.670;2022-10-16T13:03:32;3.93;;;1.20;;
2940;SDS011;1480;51.456;6.670;2022-10-16T13:06:17;2.60;;;1.17;;
2940;SDS011;1480;51.456;6.670;2022-10-16T13:11:55;3.87;;;1.17;;
2940;SDS011;1480;51.456;6.670;2022-10-16T13:14:38;4.97;;;1.83;;
2940;SDS011;1480;51.456;6.670;2022-10-16T13:17:16;4.73;;;1.40;;
2940;SDS011;1480;51.456;6.670;2022-10-16T13:19:53;3.50;;;1.67;;
2940;SDS011;1480;51.456;6.670;2022-10-16T13:22:29;4.90;;;1.20;;
2940;SDS011;1480;51.456;6.670;2022-10-16T13:25:05;2.53;;;1.00;;
2940;SDS011;1480;51.456;6.670;2022-10-16T13:27:48;2.70;;;1.23;;
2940;SDS011;1480;51.456;6.670;2022-10-16T13:30:31;5.00;;;1.10;;
2940;SDS011;1480;51.456;6.670;2022-10-16T13:33:06;1.77;;;0.90;;
2940;SDS011;1480;51.456;6.670;2022-10-16T13:35:46;3.10;;;1.10;;
2940;SDS011;1480;51.456;6.670;2022-10-16T13:38:15;4.03;;;1.10;;
2940;SDS011;1480;51.456;6.670;2022-10-16T13:40:49;3.13;;;1.00;;
2940;SDS011;1480;51.456;6.670;2022-10-16T13:43:24;2.57;;;1.10;;
2940;SDS011;1480;51.456;6.670;2022-10-16T13:45:55;3.10;;;1.17;;
2940;SDS011;1480;51.456;6.670;2022-10-16T13:48:24;2.40;;;1.27;;
2940;SDS011;1480;51.456;6.670;2022-10-16T13:51:00;2.43;;;1.00;;
2940;SDS011;1480;51.456;6.670;2022-10-16T13:53:30;3.13;;;1.50;;
2940;SDS011;1480;51.456;6.670;2022-10-16T13:55:58;3.80;;;1.40;;
2940;SDS011;1480;51.456;6.670;2022-10-16T13:58:28;2.80;;;1.10;;
2940;SDS011;1480;51.456;6.670;2022-10-16T14:00:55;2.00;;;1.00;;
2940;SDS011;1480;51.456;6.670;2022-10-16T14:03:24;2.47;;;1.10;;
2940;SDS011;1480;51.456;6.670;2022-10-16T14:05:53;3.07;;;1.40;;
2940;SDS011;1480;51.456;6.670;2022-10-16T14:08:23;1.40;;;0.80;;
2940;SDS011;1480;51.456;6.670;2022-10-16T14:10:52;2.73;;;1.20;;
2940;SDS011;1480;51.456;6.670;2022-10-16T14:13:24;2.83;;;1.20;;
2940;SDS011;1480;51.456;6.670;2022-10-16T14:15:57;7.80;;;1.60;;
2940;SDS011;1480;51.456;6.670;2022-10-16T14:18:28;2.73;;;0.90;;
2940;SDS011;1480;51.456;6.670;2022-10-16T14:21:02;2.83;;;1.67;;
2940;SDS011;1480;51.456;6.670;2022-10-16T14:23:30;2.20;;;1.10;;
2940;SDS011;1480;51.456;6.670;2022-10-16T14:26:13;2.17;;;1.07;;
2940;SDS011;1480;51.456;6.670;2022-10-16T14:28:44;2.37;;;1.20;;
2940;SDS011;1480;51.456;6.670;2022-10-16T14:31:26;2.03;;;1.10;;
2940;SDS011;1480;51.456;6.670;2022-10-16T14:33:54;3.83;;;1.30;;
2940;SDS011;1480;51.456;6.670;2022-10-16T14:36:22;3.43;;;1.33;;
2940;SDS011;1480;51.456;6.670;2022-10-16T14:38:53;1.90;;;1.37;;
2940;SDS011;1480;51.456;6.670;2022-10-16T14:41:28;3.30;;;1.40;;
2940;SDS011;1480;51.456;6.670;2022-10-16T14:44:00;2.97;;;1.33;;
2940;SDS011;1480;51.456;6.670;2022-10-16T14:46:30;3.43;;;1.67;;
2940;SDS011;1480;51.456;6.670;2022-10-16T14:49:00;4.07;;;1.60;;
2940;SDS011;1480;51.456;6.670;2022-10-16T14:51:34;5.87;;;1.63;;
2940;SDS011;1480;51.456;6.670;2022-10-16T14:54:02;2.70;;;1.70;;
2940;SDS011;1480;51.456;6.670;2022-10-16T14:56:30;3.67;;;1.47;;
2940;SDS011;1480;51.456;6.670;2022-10-16T14:59:02;4.10;;;1.50;;
2940;SDS011;1480;51.456;6.670;2022-10-16T15:01:29;3.60;;;1.63;;
2940;SDS011;1480;51.456;6.670;2022-10-16T15:03:56;2.97;;;1.53;;
2940;SDS011;1480;51.456;6.670;2022-10-16T15:06:23;5.53;;;1.30;;
2940;SDS011;1480;51.456;6.670;2022-10-16T15:08:50;2.83;;;1.30;;
2940;SDS011;1480;51.456;6.670;2022-10-16T15:11:17;2.63;;;1.50;;
2940;SDS011;1480;51.456;6.670;2022-10-16T15:13:46;3.03;;;1.40;;
2940;SDS011;1480;51.456;6.670;2022-10-16T15:16:15;1.77;;;1.10;;
2940;SDS011;1480;51.456;6.670;2022-10-16T15:18:43;2.40;;;1.13;;
2940;SDS011;1480;51.456;6.670;2022-10-16T15:21:11;2.43;;;1.10;;
2940;SDS011;1480;51.456;6.670;2022-10-16T15:23:53;2.90;;;1.10;;
2940;SDS011;1480;51.456;6.670;2022-10-16T15:26:22;3.47;;;1.30;;
2940;SDS011;1480;51.456;6.670;2022-10-16T15:28:49;5.53;;;1.33;;
2940;SDS011;1480;51.456;6.670;2022-10-16T15:31:20;3.43;;;1.10;;
2940;SDS011;1480;51.456;6.670;2022-10-16T15:33:51;2.00;;;1.00;;
2940;SDS011;1480;51.456;6.670;2022-10-16T15:36:26;3.07;;;1.23;;
2940;SDS011;1480;51.456;6.670;2022-10-16T15:38:54;2.50;;;1.30;;
2940;SDS011;1480;51.456;6.670;2022-10-16T15:41:22;2.27;;;1.00;;
2940;SDS011;1480;51.456;6.670;2022-10-16T15:43:49;2.47;;;1.20;;
2940;SDS011;1480;51.456;6.670;2022-10-16T15:46:18;6.03;;;1.37;;
2940;SDS011;1480;51.456;6.670;2022-10-16T15:48:50;4.30;;;1.57;;
2940;SDS011;1480;51.456;6.670;2022-10-16T15:51:21;4.27;;;1.60;;